createdAt,value
2018-09-20T00:00:22.362Z,72.96
2018-09-20T00:02:49.553Z,73.56
2018-09-20T00:05:16.719Z,72.83
2018-09-20T00:07:43.899Z,72.60
2018-09-20T00:10:11.079Z,72.54
2018-09-20T00:12:38.280Z,72.19
2018-09-20T00:15:05.529Z,72.64
2018-09-20T00:17:32.731Z,72.78
2018-09-20T00:19:59.928Z,73.26
2018-09-20T00:22:27.057Z,72.24
2018-09-20T00:24:54.235Z,72.73
2018-09-20T00:27:21.356Z,71.58
2018-09-20T00:29:48.615Z,71.39
2018-09-20T00:32:15.882Z,71.72
2018-09-20T00:34:43.020Z,70.75
2018-09-20T00:37:10.156Z,71.03
2018-09-20T00:39:37.333Z,71.25
2018-09-20T00:42:04.481Z,71.79
2018-09-20T00:44:31.598Z,70.99
2018-09-20T00:46:58.824Z,70.73
2018-09-20T00:49:25.949Z,71.37
2018-09-20T00:51:53.082Z,70.79
2018-09-20T00:54:20.265Z,71.66
2018-09-20T00:56:47.429Z,69.18
2018-09-20T00:59:14.558Z,70.96
2018-09-20T01:01:41.777Z,70.36
2018-09-20T01:04:08.912Z,70.67
2018-09-20T01:06:36.044Z,70.06
2018-09-20T01:09:05.526Z,68.75
2018-09-20T01:11:32.777Z,68.77
2018-09-20T01:13:59.949Z,68.55
2018-09-20T01:16:27.112Z,69.27
2018-09-20T01:18:54.261Z,69.72
2018-09-20T01:21:21.370Z,69.42
2018-09-20T01:23:48.626Z,69.82
2018-09-20T01:26:15.740Z,70.51
2018-09-20T01:28:42.849Z,70.41
2018-09-20T01:31:10.025Z,70.84
2018-09-20T01:33:37.134Z,70.47
2018-09-20T01:36:04.285Z,71.93
2018-09-20T01:38:31.461Z,72.95
2018-09-20T01:40:58.568Z,73.34
2018-09-20T01:43:25.673Z,73.54
2018-09-20T01:45:52.845Z,73.65
2018-09-20T01:48:19.958Z,73.54
2018-09-20T01:50:47.084Z,74.01
2018-09-20T01:53:14.253Z,74.08
2018-09-20T01:55:41.377Z,74.29
2018-09-20T01:58:08.490Z,74.31
2018-09-20T02:00:35.753Z,74.91
2018-09-20T02:03:02.883Z,74.92
2018-09-20T02:05:30.017Z,75.78
2018-09-20T02:07:57.176Z,75.50
2018-09-20T02:10:24.294Z,76.69
2018-09-20T02:12:51.397Z,76.57
2018-09-20T02:15:18.645Z,76.17
2018-09-20T02:17:45.770Z,76.60
2018-09-20T02:20:12.955Z,77.58
2018-09-20T02:22:40.112Z,77.37
2018-09-20T02:25:07.246Z,76.70
2018-09-20T02:27:34.452Z,77.89
2018-09-20T02:30:01.685Z,77.97
2018-09-20T02:32:28.793Z,78.65
2018-09-20T02:34:55.997Z,78.53
2018-09-20T02:37:23.240Z,79.39
2018-09-20T02:39:50.436Z,80.13
2018-09-20T02:42:17.545Z,80.53
2018-09-20T02:44:44.729Z,80.26
2018-09-20T02:47:11.857Z,79.03
2018-09-20T02:49:38.956Z,80.34
2018-09-20T02:52:06.313Z,80.87
2018-09-20T02:54:33.428Z,81.00
2018-09-20T02:57:00.705Z,81.37
2018-09-20T02:59:27.886Z,81.09
2018-09-20T03:01:55.018Z,81.49
2018-09-20T03:04:22.142Z,81.47
2018-09-20T03:06:49.317Z,81.70
2018-09-20T03:09:16.456Z,82.05
2018-09-20T03:11:43.589Z,82.29
2018-09-20T03:14:10.782Z,81.69
2018-09-20T03:16:37.910Z,81.98
2018-09-20T03:19:05.289Z,83.00
2018-09-20T03:21:32.490Z,83.08
2018-09-20T03:23:59.645Z,83.04
2018-09-20T03:26:26.798Z,82.97
2018-09-20T03:28:54.093Z,82.70
2018-09-20T03:31:21.302Z,82.43
2018-09-20T03:33:48.392Z,83.43
2018-09-20T03:36:15.625Z,83.67
2018-09-20T03:38:42.779Z,83.59
2018-09-20T03:41:09.988Z,84.02
2018-09-20T03:43:37.129Z,84.27
2018-09-20T03:46:04.285Z,83.83
2018-09-20T03:48:31.445Z,82.91
2018-09-20T03:50:58.630Z,82.71
2018-09-20T03:53:25.827Z,82.84
2018-09-20T03:55:52.945Z,83.90
2018-09-20T03:58:20.122Z,83.76
2018-09-20T04:00:47.224Z,84.01
2018-09-20T04:03:14.347Z,84.10
2018-09-20T04:05:41.513Z,83.83
2018-09-20T04:08:08.662Z,83.95
2018-09-20T04:10:35.951Z,84.00
2018-09-20T04:13:03.140Z,84.26
2018-09-20T04:15:30.306Z,84.32
2018-09-20T04:17:57.421Z,84.52
2018-09-20T04:20:24.583Z,85.02
2018-09-20T04:22:51.686Z,84.90
2018-09-20T04:25:18.813Z,85.44
2018-09-20T04:27:46.044Z,85.01
2018-09-20T04:30:13.244Z,85.16
2018-09-20T04:32:40.387Z,85.16
2018-09-20T04:35:07.554Z,85.37
2018-09-20T04:37:34.662Z,85.49
2018-09-20T04:40:01.906Z,85.61
2018-09-20T04:42:29.070Z,85.85
2018-09-20T04:44:56.767Z,86.14
2018-09-20T04:47:23.882Z,86.84
2018-09-20T04:49:51.046Z,87.02
2018-09-20T04:52:18.214Z,86.98
2018-09-20T04:54:45.390Z,86.50
2018-09-20T04:57:12.632Z,86.97
2018-09-20T04:59:39.776Z,86.42
2018-09-20T05:02:06.937Z,86.77
2018-09-20T05:04:34.236Z,86.76
2018-09-20T05:07:01.395Z,87.16
2018-09-20T05:09:30.158Z,87.23
2018-09-20T05:11:57.495Z,86.86
2018-09-20T05:14:24.628Z,86.90
2018-09-20T05:16:51.736Z,86.12
2018-09-20T05:19:18.892Z,85.10
2018-09-20T05:21:46.062Z,84.86
2018-09-20T05:24:13.176Z,85.24
2018-09-20T05:26:40.364Z,87.07
2018-09-20T05:29:07.480Z,87.41
2018-09-20T05:31:34.669Z,88.05
2018-09-20T05:34:01.841Z,87.86
2018-09-20T05:36:28.962Z,86.60
2018-09-20T05:38:56.085Z,87.18
2018-09-20T05:41:23.926Z,86.85
2018-09-20T05:43:51.193Z,83.74
2018-09-20T05:46:18.317Z,83.43
2018-09-20T05:48:45.479Z,83.62
2018-09-20T05:51:12.629Z,85.92
2018-09-20T05:53:39.776Z,84.54
2018-09-20T05:56:07.028Z,83.47
2018-09-20T05:58:34.154Z,84.04
2018-09-20T06:01:01.278Z,84.20
2018-09-20T06:03:28.449Z,84.13
2018-09-20T06:05:55.609Z,85.28
2018-09-20T06:08:22.892Z,84.53
2018-09-20T06:10:50.229Z,86.10
2018-09-20T06:13:17.589Z,81.52
2018-09-20T06:15:44.754Z,79.78
2018-09-20T06:18:11.991Z,79.64
2018-09-20T06:20:39.153Z,80.19
2018-09-20T06:23:06.297Z,79.24
2018-09-20T06:25:33.525Z,81.41
2018-09-20T06:28:00.650Z,79.79
2018-09-20T06:30:27.797Z,78.15
2018-09-20T06:32:55.061Z,77.13
2018-09-20T06:38:30.854Z,75.85
2018-09-20T06:40:58.061Z,77.18
2018-09-20T06:43:25.157Z,77.39
2018-09-20T06:45:52.329Z,77.03
2018-09-20T06:48:19.448Z,77.11
2018-09-20T06:50:46.581Z,75.28
2018-09-20T06:53:13.749Z,75.42
2018-09-20T06:55:40.851Z,74.82
2018-09-20T06:58:08.031Z,74.29
2018-09-20T07:00:35.210Z,75.37
2018-09-20T07:03:02.756Z,74.49
2018-09-20T07:05:35.445Z,74.61
2018-09-20T07:08:02.659Z,74.75
2018-09-20T07:10:29.841Z,73.35
2018-09-20T07:12:57.181Z,71.63
2018-09-20T07:15:24.289Z,70.80
2018-09-20T07:17:51.765Z,69.22
2018-09-20T07:20:18.918Z,69.05
2018-09-20T07:22:46.112Z,68.00
2018-09-20T07:25:13.261Z,66.78
2018-09-20T07:27:40.444Z,67.05
2018-09-20T07:30:07.786Z,65.60
2018-09-20T07:32:34.912Z,64.53
2018-09-20T07:35:04.489Z,64.45
2018-09-20T07:37:31.689Z,63.95
2018-09-20T07:39:58.913Z,64.98
2018-09-20T07:42:26.071Z,64.55
2018-09-20T07:44:53.268Z,62.17
2018-09-20T07:47:21.045Z,63.14
2018-09-20T07:49:48.270Z,61.92
2018-09-20T07:52:15.393Z,60.08
2018-09-20T07:54:43.502Z,61.06
2018-09-20T07:57:11.000Z,58.90
2018-09-20T07:59:38.156Z,59.85
2018-09-20T08:02:05.481Z,59.38
2018-09-20T08:04:33.629Z,58.76
2018-09-20T08:07:00.795Z,58.29
2018-09-20T08:09:27.897Z,55.62
2018-09-20T08:11:55.216Z,54.98
2018-09-20T08:14:23.189Z,54.44
2018-09-20T08:16:50.548Z,54.26
2018-09-20T08:19:18.034Z,53.52
2018-09-20T08:21:45.274Z,54.43
2018-09-20T08:24:12.724Z,52.38
2018-09-20T08:26:40.317Z,52.80
2018-09-20T08:29:07.526Z,54.23
2018-09-20T08:31:35.122Z,51.00
2018-09-20T08:34:02.414Z,50.21
2018-09-20T08:36:29.906Z,49.39
2018-09-20T08:38:57.287Z,50.54
2018-09-20T08:41:24.477Z,50.47
2018-09-20T08:43:51.797Z,45.73
2018-09-20T08:46:19.001Z,49.73
2018-09-20T08:48:46.796Z,47.66
2018-09-20T08:51:14.316Z,47.99
2018-09-20T08:53:41.609Z,46.72
2018-09-20T08:56:13.748Z,47.87
2018-09-20T08:58:40.993Z,43.86
2018-09-20T09:01:08.140Z,42.97
2018-09-20T09:03:35.498Z,44.50
2018-09-20T09:06:02.876Z,44.68
2018-09-20T09:08:30.031Z,44.97
2018-09-20T09:10:57.635Z,45.13
2018-09-20T09:13:24.776Z,43.53
2018-09-20T09:15:52.588Z,43.03
2018-09-20T09:18:19.843Z,42.61
2018-09-20T09:20:47.022Z,44.27
2018-09-20T09:23:14.203Z,44.26
2018-09-20T09:25:41.449Z,44.62
2018-09-20T09:28:08.637Z,42.71
2018-09-20T09:30:35.861Z,41.83
2018-09-20T09:33:03.638Z,41.23
2018-09-20T09:35:30.820Z,41.13
2018-09-20T09:37:58.015Z,39.37
2018-09-20T09:40:25.204Z,37.44
2018-09-20T09:42:52.584Z,37.36
2018-09-20T09:45:19.828Z,38.57
2018-09-20T09:47:47.095Z,39.02
2018-09-20T09:50:14.356Z,36.15
2018-09-20T09:52:41.609Z,35.94
2018-09-20T09:55:08.822Z,36.32
2018-09-20T09:57:35.961Z,37.04
2018-09-20T10:00:04.786Z,36.72
2018-09-20T10:02:32.480Z,36.66
2018-09-20T10:04:59.704Z,36.66
2018-09-20T10:07:27.386Z,36.48
2018-09-20T10:09:55.320Z,34.92
2018-09-20T10:12:22.593Z,36.15
2018-09-20T10:14:49.915Z,35.87
2018-09-20T10:17:17.563Z,39.49
2018-09-20T10:19:46.164Z,37.70
2018-09-20T10:22:13.697Z,37.72
2018-09-20T10:24:41.223Z,38.31
2018-09-20T10:27:08.572Z,39.56
2018-09-20T10:29:35.721Z,37.96
2018-09-20T10:32:02.893Z,35.76
2018-09-20T10:34:30.046Z,34.95
2018-09-20T10:36:57.176Z,38.81
2018-09-20T10:39:24.378Z,38.47
2018-09-20T10:41:51.508Z,36.64
2018-09-20T10:44:18.700Z,38.35
2018-09-20T10:49:58.938Z,36.91
2018-09-20T10:52:26.290Z,35.88
2018-09-20T10:54:53.433Z,36.19
2018-09-20T10:57:20.569Z,36.39
2018-09-20T10:59:47.769Z,36.17
2018-09-20T11:02:14.937Z,36.58
2018-09-20T11:04:42.183Z,34.36
2018-09-20T11:07:09.372Z,34.94
2018-09-20T11:09:36.796Z,34.47
2018-09-20T11:12:04.026Z,34.80
2018-09-20T11:14:31.237Z,33.87
2018-09-20T11:16:58.400Z,34.75
2018-09-20T11:19:25.532Z,34.50
2018-09-20T11:21:52.761Z,35.27
2018-09-20T11:24:20.622Z,33.81
2018-09-20T11:26:48.018Z,33.96
2018-09-20T11:29:15.205Z,33.98
2018-09-20T11:31:42.341Z,33.09
2018-09-20T11:34:10.124Z,34.28
2018-09-20T11:36:37.823Z,33.76
2018-09-20T11:39:07.666Z,34.80
2018-09-20T11:41:35.231Z,34.86
2018-09-20T11:44:02.527Z,35.74
2018-09-20T11:46:29.765Z,35.41
2018-09-20T11:48:56.933Z,33.66
2018-09-20T11:51:24.216Z,33.18
2018-09-20T11:53:51.425Z,34.15
2018-09-20T11:56:18.614Z,34.96
2018-09-20T11:58:46.610Z,34.65
2018-09-20T12:01:13.857Z,33.15
2018-09-20T12:03:42.511Z,36.28
2018-09-20T12:06:09.785Z,35.27
2018-09-20T12:08:37.885Z,36.32
2018-09-20T12:11:06.346Z,36.16
2018-09-20T12:13:33.869Z,36.77
2018-09-20T12:16:01.085Z,37.38
2018-09-20T12:18:28.242Z,36.66
2018-09-20T12:20:56.068Z,37.95
2018-09-20T12:23:23.303Z,37.32
2018-09-20T12:25:50.999Z,38.01
2018-09-20T12:28:18.466Z,36.67
2018-09-20T12:30:45.674Z,36.56
2018-09-20T12:33:12.855Z,37.66
2018-09-20T12:35:40.105Z,36.84
2018-09-20T12:38:07.351Z,36.87
2018-09-20T12:40:34.529Z,35.10
2018-09-20T12:43:01.808Z,36.18
2018-09-20T12:45:28.889Z,35.46
2018-09-20T12:47:56.081Z,35.75
2018-09-20T12:50:23.301Z,37.56
2018-09-20T12:52:50.476Z,36.50
2018-09-20T12:55:17.680Z,35.69
2018-09-20T12:57:44.936Z,36.50
2018-09-20T13:00:12.080Z,36.03
2018-09-20T13:02:39.381Z,36.26
2018-09-20T13:05:06.719Z,36.40
2018-09-20T13:07:33.966Z,36.31
2018-09-20T13:10:01.146Z,36.78
2018-09-20T13:12:28.393Z,37.37
2018-09-20T13:14:55.563Z,37.55
2018-09-20T13:17:22.685Z,35.84
2018-09-20T13:19:49.996Z,36.76
2018-09-20T13:22:17.139Z,36.25
2018-09-20T13:24:44.323Z,34.53
2018-09-20T13:27:11.640Z,34.41
2018-09-20T13:29:38.817Z,34.07
2018-09-20T13:32:06.945Z,34.83
2018-09-20T13:34:34.249Z,34.76
2018-09-20T13:37:01.472Z,34.08
2018-09-20T13:39:28.721Z,34.81
2018-09-20T13:41:56.006Z,34.27
2018-09-20T13:44:23.478Z,34.94
2018-09-20T13:46:50.720Z,34.33
2018-09-20T13:49:17.993Z,34.45
2018-09-20T13:51:45.171Z,37.00
2018-09-20T13:54:12.334Z,33.99
2018-09-20T13:56:39.650Z,35.15
2018-09-20T13:59:06.861Z,34.49
2018-09-20T14:01:34.032Z,34.42
2018-09-20T14:04:01.251Z,35.40
2018-09-20T14:06:28.398Z,35.34
2018-09-20T14:08:55.647Z,34.73
2018-09-20T14:11:22.969Z,34.80
2018-09-20T14:13:50.157Z,34.89
2018-09-20T14:16:17.315Z,35.98
2018-09-20T14:18:44.489Z,34.83
2018-09-20T14:21:11.702Z,35.09
2018-09-20T14:23:38.876Z,34.36
2018-09-20T14:26:06.295Z,35.31
2018-09-20T14:28:33.424Z,35.86
2018-09-20T14:31:00.566Z,36.03
2018-09-20T14:33:27.813Z,35.00
2018-09-20T14:35:54.925Z,35.25
2018-09-20T14:38:22.050Z,35.72
2018-09-20T14:40:49.217Z,33.95
2018-09-20T14:43:16.356Z,33.54
2018-09-20T14:45:43.477Z,34.05
2018-09-20T14:48:10.673Z,33.72
2018-09-20T14:50:37.796Z,33.98
2018-09-20T14:53:04.951Z,35.09
2018-09-20T14:55:32.133Z,34.78
2018-09-20T14:57:59.270Z,35.32
2018-09-20T15:00:26.709Z,35.75
2018-09-20T15:02:53.891Z,36.01
2018-09-20T15:05:21.016Z,35.15
2018-09-20T15:07:48.141Z,34.76
2018-09-20T15:10:15.310Z,33.28
2018-09-20T15:12:43.306Z,32.76
2018-09-20T15:15:10.517Z,32.04
2018-09-20T15:17:37.639Z,32.19
2018-09-20T15:20:04.772Z,32.79
2018-09-20T15:22:31.901Z,32.46
2018-09-20T15:24:59.090Z,32.87
2018-09-20T15:27:26.225Z,33.82
2018-09-20T15:29:53.349Z,35.13
2018-09-20T15:32:20.536Z,34.42
2018-09-20T15:34:47.757Z,33.29
2018-09-20T15:37:14.916Z,34.87
2018-09-20T15:39:42.127Z,33.81
2018-09-20T15:42:09.369Z,33.57
2018-09-20T15:44:36.536Z,34.10
2018-09-20T15:47:03.880Z,33.85
2018-09-20T15:49:31.029Z,34.53
2018-09-20T15:51:58.502Z,35.09
2018-09-20T15:54:25.852Z,35.94
2018-09-20T15:56:53.045Z,36.73
2018-09-20T15:59:20.505Z,35.78
2018-09-20T16:01:47.759Z,35.65
2018-09-20T16:04:14.997Z,35.49
2018-09-20T16:06:42.293Z,36.41
2018-09-20T16:09:10.874Z,36.08
2018-09-20T16:11:38.049Z,36.39
2018-09-20T16:14:05.409Z,35.85
2018-09-20T16:16:32.792Z,37.59
2018-09-20T16:19:00.009Z,37.55
2018-09-20T16:21:27.163Z,37.54
2018-09-20T16:23:54.360Z,39.85
2018-09-20T16:26:21.512Z,40.48
2018-09-20T16:28:59.651Z,39.62
2018-09-20T16:33:44.830Z,39.57
2018-09-20T16:36:18.845Z,39.48
2018-09-20T16:38:52.004Z,42.63
2018-09-20T16:41:23.350Z,46.14
2018-09-20T16:43:50.516Z,45.48
2018-09-20T16:46:17.661Z,46.24
2018-09-20T16:48:44.990Z,47.12
2018-09-20T16:51:12.140Z,48.31
2018-09-20T16:53:39.293Z,47.60
2018-09-20T16:56:06.759Z,49.46
2018-09-20T16:58:33.901Z,49.61
2018-09-20T17:01:01.045Z,50.66
2018-09-20T17:03:28.217Z,51.09
2018-09-20T17:05:55.365Z,52.02
2018-09-20T17:08:22.500Z,51.61
2018-09-20T17:10:49.702Z,53.18
2018-09-20T17:13:17.602Z,54.14
2018-09-20T17:15:44.690Z,54.30
2018-09-20T17:18:11.865Z,53.85
2018-09-20T17:20:39.165Z,54.95
2018-09-20T17:23:06.297Z,55.16
2018-09-20T17:25:33.620Z,55.85
2018-09-20T17:28:00.705Z,56.15
2018-09-20T17:30:28.457Z,55.53
2018-09-20T17:32:55.663Z,56.96
2018-09-20T17:35:23.213Z,57.14
2018-09-20T17:37:51.046Z,56.69
2018-09-20T17:40:19.319Z,57.72
2018-09-20T17:42:47.740Z,57.45
2018-09-20T17:45:14.873Z,58.15
2018-09-20T17:47:42.082Z,58.30
2018-09-20T17:50:09.230Z,58.08
2018-09-20T17:52:36.726Z,58.63
2018-09-20T17:55:05.145Z,58.93
2018-09-20T17:57:33.542Z,58.66
2018-09-20T18:00:00.746Z,59.44
2018-09-20T18:02:27.945Z,60.09
2018-09-20T18:04:55.137Z,60.53
2018-09-20T18:07:22.305Z,60.57
2018-09-20T18:09:49.521Z,61.40
2018-09-20T18:12:16.756Z,61.08
2018-09-20T18:14:43.901Z,62.10
2018-09-20T18:17:11.346Z,62.09
2018-09-20T18:19:38.614Z,62.26
2018-09-20T18:22:05.785Z,62.67
2018-09-20T18:24:33.128Z,62.50
2018-09-20T18:27:00.254Z,63.22
2018-09-20T18:29:27.485Z,63.63
2018-09-20T18:31:54.932Z,64.08
2018-09-20T18:34:22.169Z,64.51
2018-09-20T18:36:49.368Z,64.83
2018-09-20T18:39:16.617Z,65.00
2018-09-20T18:41:44.993Z,64.66
2018-09-20T18:44:12.246Z,64.64
2018-09-20T18:46:39.450Z,65.61
2018-09-20T18:49:07.016Z,65.73
2018-09-20T18:51:34.814Z,65.56
2018-09-20T18:54:02.081Z,66.96
2018-09-20T18:56:29.391Z,66.69
2018-09-20T18:58:56.540Z,66.86
2018-09-20T19:01:23.875Z,67.07
2018-09-20T19:03:51.213Z,67.37
2018-09-20T19:06:18.482Z,67.27
2018-09-20T19:08:45.662Z,67.28
2018-09-20T19:11:12.869Z,67.99
2018-09-20T19:13:40.034Z,67.90
2018-09-20T19:16:07.209Z,68.32
2018-09-20T19:18:34.331Z,68.23
2018-09-20T19:21:01.637Z,68.38
2018-09-20T19:23:28.845Z,67.94
2018-09-20T19:25:55.957Z,68.28
2018-09-20T19:28:23.137Z,68.00
2018-09-20T19:30:50.313Z,68.33
2018-09-20T19:33:17.582Z,68.76
2018-09-20T19:35:44.711Z,69.08
2018-09-20T19:38:11.901Z,68.90
2018-09-20T19:40:39.741Z,68.70
2018-09-20T19:43:06.910Z,69.45
2018-09-20T19:45:34.110Z,69.84
2018-09-20T19:48:01.260Z,70.02
2018-09-20T19:50:28.417Z,70.30
2018-09-20T19:52:55.701Z,70.75
2018-09-20T19:55:22.854Z,70.85
2018-09-20T19:57:50.021Z,71.29
2018-09-20T20:00:17.232Z,70.56
2018-09-20T20:02:44.405Z,70.85
2018-09-20T20:05:11.652Z,71.39
2018-09-20T20:07:38.884Z,70.80
2018-09-20T20:10:06.090Z,71.48
2018-09-20T20:12:33.266Z,71.57
2018-09-20T20:15:00.473Z,71.41
2018-09-20T20:17:28.479Z,71.83
2018-09-20T20:19:55.668Z,72.53
2018-09-20T20:22:22.908Z,72.68
2018-09-20T20:24:50.062Z,73.88
2018-09-20T20:27:17.210Z,73.40
2018-09-20T20:29:44.397Z,74.32
2018-09-20T20:32:11.596Z,74.32
2018-09-20T20:34:38.778Z,73.97
2018-09-20T20:37:06.153Z,74.18
2018-09-20T20:39:33.298Z,74.16
2018-09-20T20:42:00.504Z,74.98
2018-09-20T20:44:27.877Z,74.94
2018-09-20T20:46:55.097Z,74.97
2018-09-20T20:49:22.274Z,75.70
2018-09-20T20:51:49.582Z,75.92
2018-09-20T20:54:16.741Z,76.17
2018-09-20T20:56:43.938Z,76.00
2018-09-20T20:59:11.163Z,76.34
2018-09-20T21:01:38.311Z,76.47
2018-09-20T21:04:05.467Z,76.99
2018-09-20T21:06:32.789Z,77.60
2018-09-20T21:09:00.006Z,77.55
2018-09-20T21:11:27.118Z,77.68
2018-09-20T21:13:54.322Z,78.13
2018-09-20T21:16:21.474Z,77.91
2018-09-20T21:18:48.686Z,78.10
2018-09-20T21:21:15.906Z,77.64
2018-09-20T21:23:43.709Z,78.11
2018-09-20T21:26:10.866Z,78.73
2018-09-20T21:28:38.053Z,79.02
2018-09-20T21:31:05.537Z,79.03
2018-09-20T21:33:32.683Z,78.64
2018-09-20T21:35:59.862Z,78.79
2018-09-20T21:38:27.048Z,78.56
2018-09-20T21:40:54.296Z,78.28
2018-09-20T21:43:21.524Z,79.24
2018-09-20T21:45:49.081Z,79.70
2018-09-20T21:48:16.318Z,79.54
2018-09-20T21:50:43.593Z,79.29
2018-09-20T21:53:10.761Z,80.24
2018-09-20T21:55:37.922Z,80.58
2018-09-20T21:58:05.126Z,80.42
2018-09-20T22:00:32.278Z,79.55
2018-09-20T22:03:02.570Z,79.06
2018-09-20T22:05:30.485Z,80.21
2018-09-20T22:07:57.711Z,80.92
2018-09-20T22:10:24.853Z,80.26
2018-09-20T22:12:52.053Z,81.32
2018-09-20T22:15:28.401Z,80.97
2018-09-20T22:17:56.270Z,81.63
2018-09-20T22:20:26.549Z,82.03
2018-09-20T22:22:53.741Z,82.61
2018-09-20T22:25:20.989Z,82.88
2018-09-20T22:27:48.208Z,82.45
2018-09-20T22:30:15.602Z,82.89
2018-09-20T22:32:42.927Z,82.33
2018-09-20T22:35:10.106Z,82.96
2018-09-20T22:37:37.258Z,82.22
2018-09-20T22:40:04.606Z,82.13
2018-09-20T22:42:31.833Z,82.78
2018-09-20T22:44:59.170Z,83.27
2018-09-20T22:47:26.359Z,83.38
2018-09-20T22:49:53.586Z,83.35
2018-09-20T22:52:20.781Z,83.00
2018-09-20T22:54:47.973Z,83.77
2018-09-20T22:57:15.157Z,84.13
2018-09-20T22:59:42.701Z,84.28
2018-09-20T23:02:09.951Z,84.05
2018-09-20T23:04:37.137Z,84.41
2018-09-20T23:07:04.366Z,84.89
2018-09-20T23:09:31.603Z,84.23
2018-09-20T23:11:58.842Z,84.63
2018-09-20T23:14:26.035Z,85.29
2018-09-20T23:16:53.745Z,84.87
2018-09-20T23:19:20.946Z,85.15
2018-09-20T23:21:48.118Z,85.26
2018-09-20T23:24:15.442Z,84.47
2018-09-20T23:26:42.669Z,84.38
2018-09-20T23:29:09.840Z,84.32
2018-09-20T23:31:37.033Z,84.60
2018-09-20T23:34:04.237Z,84.60
2018-09-20T23:36:31.587Z,84.19
2018-09-20T23:38:58.811Z,84.43
2018-09-20T23:41:26.012Z,84.93
2018-09-20T23:43:53.186Z,85.06
2018-09-20T23:46:20.537Z,84.22
2018-09-20T23:48:47.702Z,83.86
2018-09-20T23:51:14.965Z,84.15
2018-09-20T23:53:42.282Z,84.37
2018-09-20T23:56:09.484Z,85.61
2018-09-20T23:58:36.820Z,84.69
